createdAt,value
2017-10-14T00:01:21.930Z,78.22
2017-10-14T00:03:49.372Z,78.17
2017-10-14T00:06:16.787Z,77.87
2017-10-14T00:08:44.347Z,77.76
2017-10-14T00:11:11.735Z,77.63
2017-10-14T00:13:39.169Z,77.72
2017-10-14T00:16:06.580Z,78.04
2017-10-14T00:18:34.035Z,77.90
2017-10-14T00:21:01.464Z,77.92
2017-10-14T00:23:28.903Z,77.92
2017-10-14T00:25:56.327Z,77.94
2017-10-14T00:28:23.730Z,78.04
2017-10-14T00:30:51.165Z,77.95
2017-10-14T00:33:18.600Z,77.64
2017-10-14T00:35:46.039Z,77.70
2017-10-14T00:38:13.441Z,77.66
2017-10-14T00:40:41.011Z,77.53
2017-10-14T00:43:08.461Z,77.71
2017-10-14T00:45:35.887Z,77.76
2017-10-14T00:48:03.323Z,77.65
2017-10-14T00:50:30.743Z,77.81
2017-10-14T00:52:58.144Z,77.73
2017-10-14T00:55:25.575Z,78.03
2017-10-14T00:57:52.976Z,78.02
2017-10-14T01:00:20.413Z,78.12
2017-10-14T01:02:47.820Z,77.93
2017-10-14T01:05:15.255Z,78.08
2017-10-14T01:07:42.655Z,78.18
2017-10-14T01:10:10.091Z,78.14
2017-10-14T01:12:37.578Z,78.07
2017-10-14T01:15:05.025Z,78.10
2017-10-14T01:17:32.462Z,78.08
2017-10-14T01:19:59.876Z,78.05
2017-10-14T01:22:27.322Z,77.99
2017-10-14T01:24:54.761Z,78.18
2017-10-14T01:27:22.190Z,78.75
2017-10-14T01:29:49.604Z,79.02
2017-10-14T01:32:17.053Z,78.72
2017-10-14T01:34:44.477Z,78.46
2017-10-14T01:37:11.875Z,78.66
2017-10-14T01:39:39.315Z,78.37
2017-10-14T01:42:06.725Z,78.38
2017-10-14T01:44:34.155Z,78.57
2017-10-14T01:47:01.564Z,78.53
2017-10-14T01:49:29.090Z,78.72
2017-10-14T01:51:56.483Z,78.60
2017-10-14T01:54:23.940Z,78.35
2017-10-14T01:56:51.383Z,78.15
2017-10-14T01:59:18.787Z,78.30
2017-10-14T02:01:46.209Z,78.01
2017-10-14T02:04:14.357Z,78.07
2017-10-14T02:06:41.779Z,77.98
2017-10-14T02:09:09.176Z,77.89
2017-10-14T02:11:36.612Z,78.40
2017-10-14T02:14:04.011Z,78.39
2017-10-14T02:16:31.432Z,78.20
2017-10-14T02:18:58.827Z,78.22
2017-10-14T02:21:26.263Z,78.14
2017-10-14T02:23:53.695Z,78.03
2017-10-14T02:26:21.094Z,77.83
2017-10-14T02:28:48.526Z,77.87
2017-10-14T02:31:15.915Z,77.98
2017-10-14T02:33:43.347Z,77.82
2017-10-14T02:36:10.747Z,77.80
2017-10-14T02:38:38.180Z,77.81
2017-10-14T02:41:05.598Z,77.82
2017-10-14T02:43:33.053Z,77.69
2017-10-14T02:46:00.462Z,77.59
2017-10-14T02:48:27.903Z,77.54
2017-10-14T02:50:55.325Z,77.31
2017-10-14T02:53:22.763Z,77.58
2017-10-14T02:55:50.204Z,77.44
2017-10-14T02:58:17.622Z,77.55
2017-10-14T03:00:45.036Z,77.46
2017-10-14T03:03:12.445Z,77.30
2017-10-14T03:05:39.919Z,77.30
2017-10-14T03:08:07.313Z,77.46
2017-10-14T03:10:34.765Z,77.72
2017-10-14T03:13:02.185Z,77.85
2017-10-14T03:15:29.586Z,77.89
2017-10-14T03:17:57.024Z,77.54
2017-10-14T03:20:24.465Z,77.43
2017-10-14T03:22:51.872Z,77.47
2017-10-14T03:25:19.337Z,77.34
2017-10-14T03:27:46.771Z,77.35
2017-10-14T03:30:14.175Z,77.55
2017-10-14T03:32:41.581Z,77.73
2017-10-14T03:35:09.034Z,77.66
2017-10-14T03:37:36.435Z,77.74
2017-10-14T03:40:03.853Z,77.74
2017-10-14T03:42:31.276Z,78.07
2017-10-14T03:44:58.699Z,78.22
2017-10-14T03:47:26.115Z,78.31
2017-10-14T03:49:53.556Z,78.26
2017-10-14T03:52:20.941Z,78.38
2017-10-14T03:54:48.407Z,78.74
2017-10-14T03:57:15.795Z,78.62
2017-10-14T03:59:43.225Z,78.33
2017-10-14T04:02:10.664Z,78.10
2017-10-14T04:04:38.097Z,77.68
2017-10-14T04:07:05.529Z,77.48
2017-10-14T04:09:32.916Z,77.53
2017-10-14T04:12:00.351Z,77.18
2017-10-14T04:14:27.760Z,77.37
2017-10-14T04:16:55.203Z,77.43
2017-10-14T04:19:22.596Z,78.06
2017-10-14T04:21:50.512Z,78.29
2017-10-14T04:24:17.895Z,78.12
2017-10-14T04:26:45.323Z,77.59
2017-10-14T04:29:12.743Z,78.05
2017-10-14T04:31:40.184Z,78.19
2017-10-14T04:34:07.616Z,78.33
2017-10-14T04:36:35.154Z,78.31
2017-10-14T04:39:02.596Z,78.16
2017-10-14T04:41:29.998Z,78.28
2017-10-14T04:43:57.435Z,78.34
2017-10-14T04:46:24.981Z,78.69
2017-10-14T04:48:52.431Z,78.40
2017-10-14T04:51:19.841Z,78.13
2017-10-14T04:53:47.301Z,77.99
2017-10-14T04:56:14.728Z,78.06
2017-10-14T04:58:42.197Z,78.11
2017-10-14T05:01:09.637Z,77.76
2017-10-14T05:03:37.078Z,77.90
2017-10-14T05:06:04.533Z,77.95
2017-10-14T05:08:31.985Z,77.94
2017-10-14T05:10:59.381Z,77.87
2017-10-14T05:13:26.807Z,77.73
2017-10-14T05:15:54.256Z,77.49
2017-10-14T05:18:21.691Z,77.00
2017-10-14T05:20:49.095Z,77.18
2017-10-14T05:23:16.519Z,77.28
2017-10-14T05:25:43.934Z,77.30
2017-10-14T05:28:11.364Z,77.60
2017-10-14T05:30:38.786Z,77.56
2017-10-14T05:33:06.203Z,77.49
2017-10-14T05:35:33.616Z,77.43
2017-10-14T05:38:01.065Z,77.42
2017-10-14T05:40:28.771Z,77.43
2017-10-14T05:42:56.189Z,77.32
2017-10-14T05:45:23.637Z,77.52
2017-10-14T05:47:51.061Z,77.57
2017-10-14T05:50:18.496Z,77.67
2017-10-14T05:52:45.900Z,77.33
2017-10-14T05:55:13.357Z,77.49
2017-10-14T05:57:40.744Z,77.56
2017-10-14T06:00:08.174Z,77.54
2017-10-14T06:02:35.575Z,77.58
2017-10-14T06:05:03.012Z,77.70
2017-10-14T06:07:30.455Z,77.58
2017-10-14T06:09:57.896Z,77.70
2017-10-14T06:12:25.308Z,77.70
2017-10-14T06:14:52.707Z,77.71
2017-10-14T06:17:20.164Z,77.88
2017-10-14T06:19:47.556Z,77.76
2017-10-14T06:22:14.994Z,77.50
2017-10-14T06:24:42.390Z,77.34
2017-10-14T06:27:09.812Z,77.56
2017-10-14T06:29:37.256Z,77.70
2017-10-14T06:32:04.696Z,77.72
2017-10-14T06:34:32.078Z,77.58
2017-10-14T06:36:59.532Z,77.59
2017-10-14T06:39:26.944Z,77.64
2017-10-14T06:41:54.347Z,77.20
2017-10-14T06:44:21.802Z,76.98
2017-10-14T06:46:49.198Z,76.88
2017-10-14T06:49:16.671Z,76.90
2017-10-14T06:51:44.064Z,76.57
2017-10-14T06:54:11.519Z,76.76
2017-10-14T06:56:38.923Z,76.96
2017-10-14T06:59:06.349Z,76.97
2017-10-14T07:01:33.754Z,77.00
2017-10-14T07:04:01.202Z,76.83
2017-10-14T07:06:28.632Z,76.74
2017-10-14T07:08:56.048Z,76.66
2017-10-14T07:11:23.504Z,76.69
2017-10-14T07:13:50.917Z,76.79
2017-10-14T07:16:18.480Z,76.95
2017-10-14T07:18:45.871Z,76.52
2017-10-14T07:21:13.314Z,76.62
2017-10-14T07:23:40.707Z,76.57
2017-10-14T07:26:08.143Z,76.35
2017-10-14T07:28:36.347Z,76.47
2017-10-14T07:31:03.775Z,76.05
2017-10-14T07:33:31.239Z,76.36
2017-10-14T07:35:58.663Z,76.46
2017-10-14T07:38:26.095Z,76.36
2017-10-14T07:40:53.499Z,76.51
2017-10-14T07:43:20.969Z,76.59
2017-10-14T07:45:48.373Z,76.80
2017-10-14T07:48:15.796Z,76.62
2017-10-14T07:50:43.230Z,76.37
2017-10-14T07:53:10.690Z,76.37
2017-10-14T07:55:38.088Z,76.20
2017-10-14T07:58:05.619Z,76.15
2017-10-14T08:00:33.058Z,76.49
2017-10-14T08:03:00.514Z,76.50
2017-10-14T08:05:27.961Z,76.57
2017-10-14T08:07:55.385Z,76.40
2017-10-14T08:10:22.823Z,76.25
2017-10-14T08:12:50.300Z,76.20
2017-10-14T08:15:17.769Z,75.88
2017-10-14T08:17:45.172Z,76.10
2017-10-14T08:20:12.655Z,76.25
2017-10-14T08:22:40.310Z,75.86
2017-10-14T08:25:07.861Z,75.75
2017-10-14T08:27:35.383Z,75.80
2017-10-14T08:30:02.855Z,75.65
2017-10-14T08:32:30.337Z,75.52
2017-10-14T08:34:57.802Z,75.39
2017-10-14T08:37:25.251Z,75.34
2017-10-14T08:39:52.635Z,75.38
2017-10-14T08:42:20.067Z,75.25
2017-10-14T08:44:47.474Z,74.93
2017-10-14T08:47:14.895Z,74.79
2017-10-14T08:49:42.338Z,74.39
2017-10-14T08:52:09.983Z,74.23
2017-10-14T08:54:37.383Z,73.75
2017-10-14T08:57:04.815Z,73.93
2017-10-14T08:59:32.237Z,73.59
2017-10-14T09:01:59.694Z,73.64
2017-10-14T09:04:27.153Z,73.83
2017-10-14T09:06:54.663Z,73.81
2017-10-14T09:09:22.148Z,73.67
2017-10-14T09:11:49.656Z,73.45
2017-10-14T09:14:17.071Z,73.58
2017-10-14T09:16:44.497Z,73.56
2017-10-14T09:19:11.952Z,73.24
2017-10-14T09:21:39.335Z,73.00
2017-10-14T09:24:07.116Z,72.75
2017-10-14T09:26:34.610Z,72.43
2017-10-14T09:29:02.008Z,72.31
2017-10-14T09:31:29.444Z,71.98
2017-10-14T09:33:56.842Z,71.63
2017-10-14T09:36:24.276Z,71.25
2017-10-14T09:38:51.734Z,70.72
2017-10-14T09:41:19.159Z,70.31
2017-10-14T09:43:46.588Z,70.19
2017-10-14T09:46:14.023Z,69.86
2017-10-14T09:48:41.547Z,69.73
2017-10-14T09:51:08.986Z,69.69
2017-10-14T09:53:36.444Z,69.44
2017-10-14T09:56:03.951Z,69.31
2017-10-14T09:58:31.468Z,69.19
2017-10-14T10:00:58.866Z,68.88
2017-10-14T10:03:26.393Z,68.65
2017-10-14T10:05:53.799Z,68.51
2017-10-14T10:08:21.231Z,68.45
2017-10-14T10:10:48.717Z,68.23
2017-10-14T10:13:16.147Z,67.78
2017-10-14T10:15:43.544Z,67.53
2017-10-14T10:18:10.986Z,67.60
2017-10-14T10:20:38.396Z,67.66
2017-10-14T10:23:05.834Z,67.29
2017-10-14T10:25:33.243Z,67.27
2017-10-14T10:28:00.712Z,67.06
2017-10-14T10:30:28.202Z,67.04
2017-10-14T10:32:55.618Z,66.80
2017-10-14T10:35:23.039Z,66.27
2017-10-14T10:37:50.453Z,65.36
2017-10-14T10:40:17.872Z,65.76
2017-10-14T10:42:45.935Z,65.49
2017-10-14T10:45:13.373Z,65.44
2017-10-14T10:47:40.792Z,65.25
2017-10-14T10:50:08.241Z,64.61
2017-10-14T10:52:35.681Z,64.12
2017-10-14T10:55:03.088Z,64.05
2017-10-14T10:57:31.502Z,63.75
2017-10-14T10:59:58.890Z,63.38
2017-10-14T11:02:26.303Z,62.55
2017-10-14T11:04:53.975Z,62.00
2017-10-14T11:07:21.398Z,61.96
2017-10-14T11:09:48.827Z,61.83
2017-10-14T11:12:16.265Z,61.47
2017-10-14T11:14:43.734Z,61.03
2017-10-14T11:17:11.143Z,60.83
2017-10-14T11:19:38.606Z,61.19
2017-10-14T11:22:06.010Z,60.48
2017-10-14T11:24:35.149Z,59.45
2017-10-14T11:27:02.587Z,59.68
2017-10-14T11:29:30.004Z,59.54
2017-10-14T11:31:57.440Z,58.76
2017-10-14T11:34:24.855Z,58.60
2017-10-14T11:36:52.366Z,58.22
2017-10-14T11:39:19.812Z,57.83
2017-10-14T11:41:47.420Z,57.02
2017-10-14T11:44:14.820Z,57.33
2017-10-14T11:46:42.254Z,56.98
2017-10-14T11:49:09.699Z,56.78
2017-10-14T11:51:37.132Z,56.86
2017-10-14T11:54:04.569Z,56.25
2017-10-14T11:56:31.959Z,55.47
2017-10-14T11:58:59.423Z,54.98
2017-10-14T12:01:26.812Z,55.40
2017-10-14T12:03:54.256Z,55.56
2017-10-14T12:06:21.737Z,54.99
2017-10-14T12:08:49.148Z,54.85
2017-10-14T12:11:16.586Z,53.52
2017-10-14T12:13:43.978Z,53.39
2017-10-14T12:16:11.419Z,53.49
2017-10-14T12:18:38.807Z,53.31
2017-10-14T12:21:06.232Z,52.31
2017-10-14T12:23:33.661Z,52.03
2017-10-14T12:26:01.399Z,51.87
2017-10-14T12:28:28.797Z,51.34
2017-10-14T12:30:56.194Z,51.41
2017-10-14T12:33:23.621Z,51.32
2017-10-14T12:35:51.011Z,51.28
2017-10-14T12:38:18.443Z,50.85
2017-10-14T12:40:45.847Z,49.78
2017-10-14T12:43:13.331Z,49.81
2017-10-14T12:45:40.736Z,49.94
2017-10-14T12:48:08.151Z,49.71
2017-10-14T12:50:35.552Z,49.12
2017-10-14T12:53:02.984Z,48.90
2017-10-14T12:55:30.866Z,49.47
2017-10-14T12:57:58.302Z,49.35
2017-10-14T13:00:25.778Z,48.70
2017-10-14T13:02:53.175Z,48.79
2017-10-14T13:05:20.883Z,48.31
2017-10-14T13:07:48.300Z,47.70
2017-10-14T13:10:15.889Z,47.25
2017-10-14T13:12:43.289Z,47.62
2017-10-14T13:15:10.730Z,47.72
2017-10-14T13:17:38.180Z,47.78
2017-10-14T13:20:05.623Z,47.63
2017-10-14T13:22:33.028Z,47.27
2017-10-14T13:25:00.491Z,47.82
2017-10-14T13:27:27.907Z,48.00
2017-10-14T13:29:55.320Z,47.08
2017-10-14T13:32:23.139Z,47.46
2017-10-14T13:34:50.597Z,46.88
2017-10-14T13:37:18.033Z,46.37
2017-10-14T13:39:45.482Z,46.33
2017-10-14T13:42:12.880Z,47.00
2017-10-14T13:44:40.336Z,45.70
2017-10-14T13:47:07.757Z,46.27
2017-10-14T13:49:35.176Z,46.41
2017-10-14T13:52:02.584Z,46.92
2017-10-14T13:54:30.004Z,46.11
2017-10-14T13:56:57.428Z,46.29
2017-10-14T13:59:24.831Z,46.18
2017-10-14T14:01:52.252Z,45.59
2017-10-14T14:04:19.644Z,45.20
2017-10-14T14:06:47.408Z,44.49
2017-10-14T14:09:14.815Z,45.93
2017-10-14T14:11:42.259Z,45.81
2017-10-14T14:14:09.685Z,45.08
2017-10-14T14:16:37.129Z,45.61
2017-10-14T14:19:04.587Z,46.03
2017-10-14T14:21:32.084Z,45.47
2017-10-14T14:23:59.529Z,45.53
2017-10-14T14:26:26.940Z,46.28
2017-10-14T14:28:54.375Z,46.25
2017-10-14T14:31:21.777Z,46.84
2017-10-14T14:33:49.214Z,47.30
2017-10-14T14:36:16.608Z,47.59
2017-10-14T14:38:44.022Z,48.38
2017-10-14T14:41:11.456Z,48.84
2017-10-14T14:43:38.903Z,49.14
2017-10-14T14:46:06.347Z,49.30
2017-10-14T14:48:33.748Z,49.42
2017-10-14T14:51:01.175Z,49.52
2017-10-14T14:53:28.583Z,50.15
2017-10-14T14:55:55.990Z,50.14
2017-10-14T14:58:23.399Z,50.46
2017-10-14T15:00:50.831Z,50.46
2017-10-14T15:03:18.272Z,50.77
2017-10-14T15:05:45.696Z,51.40
2017-10-14T15:08:13.119Z,51.38
2017-10-14T15:10:40.540Z,51.71
2017-10-14T15:13:07.943Z,51.88
2017-10-14T15:15:35.361Z,51.86
2017-10-14T15:18:02.763Z,52.08
2017-10-14T15:20:30.192Z,52.39
2017-10-14T15:22:57.600Z,52.22
2017-10-14T15:25:25.011Z,52.55
2017-10-14T15:27:52.424Z,52.64
2017-10-14T15:30:19.875Z,52.73
2017-10-14T15:32:47.259Z,52.64
2017-10-14T15:35:14.709Z,53.04
2017-10-14T15:37:42.136Z,53.37
2017-10-14T15:40:09.540Z,53.49
2017-10-14T15:42:36.982Z,53.48
2017-10-14T15:45:05.274Z,53.84
2017-10-14T15:47:32.683Z,53.95
2017-10-14T15:50:00.085Z,54.22
2017-10-14T15:52:27.532Z,54.11
2017-10-14T15:54:54.961Z,54.23
2017-10-14T15:57:22.422Z,54.43
2017-10-14T15:59:49.838Z,54.45
2017-10-14T16:02:17.433Z,54.67
2017-10-14T16:04:45.913Z,54.89
2017-10-14T16:07:13.300Z,54.99
2017-10-14T16:09:40.751Z,55.14
2017-10-14T16:12:08.131Z,55.43
2017-10-14T16:14:35.560Z,56.10
2017-10-14T16:17:03.000Z,56.67
2017-10-14T16:19:30.416Z,57.09
2017-10-14T16:21:57.812Z,57.34
2017-10-14T16:24:25.235Z,57.63
2017-10-14T16:26:52.636Z,57.72
2017-10-14T16:29:20.097Z,58.00
2017-10-14T16:31:47.483Z,57.96
2017-10-14T16:34:15.355Z,58.11
2017-10-14T16:36:43.412Z,58.11
2017-10-14T16:39:10.795Z,58.44
2017-10-14T16:41:38.223Z,58.94
2017-10-14T16:44:05.619Z,59.26
2017-10-14T16:46:33.049Z,59.58
2017-10-14T16:49:01.590Z,59.89
2017-10-14T16:51:29.055Z,60.44
2017-10-14T16:53:56.464Z,60.84
2017-10-14T16:56:23.863Z,61.54
2017-10-14T16:58:51.291Z,61.74
2017-10-14T17:01:18.680Z,62.04
2017-10-14T17:03:46.151Z,62.40
2017-10-14T17:06:13.556Z,63.13
2017-10-14T17:08:40.972Z,63.56
2017-10-14T17:11:08.424Z,64.59
2017-10-14T17:13:35.913Z,64.81
2017-10-14T17:16:03.332Z,65.01
2017-10-14T17:18:30.731Z,65.44
2017-10-14T17:20:58.149Z,65.67
2017-10-14T17:23:25.550Z,66.24
2017-10-14T17:25:52.983Z,66.46
2017-10-14T17:28:20.438Z,66.55
2017-10-14T17:30:47.888Z,66.85
2017-10-14T17:33:15.309Z,67.40
2017-10-14T17:35:42.751Z,67.60
2017-10-14T17:38:10.196Z,67.90
2017-10-14T17:40:37.632Z,68.19
2017-10-14T17:43:05.085Z,68.47
2017-10-14T17:48:06.251Z,69.28
2017-10-14T17:50:33.656Z,69.82
2017-10-14T17:53:01.130Z,70.59
2017-10-14T17:55:28.567Z,70.55
2017-10-14T17:57:56.041Z,71.02
2017-10-14T18:00:23.437Z,71.11
2017-10-14T18:02:50.881Z,71.27
2017-10-14T18:05:18.309Z,71.35
2017-10-14T18:07:45.768Z,71.16
2017-10-14T18:10:13.199Z,71.53
2017-10-14T18:12:40.640Z,71.67
2017-10-14T18:15:08.083Z,71.98
2017-10-14T18:17:35.632Z,71.82
2017-10-14T18:20:03.170Z,72.26
2017-10-14T18:22:30.608Z,72.81
2017-10-14T18:24:58.123Z,72.99
2017-10-14T18:27:25.564Z,72.94
2017-10-14T18:29:52.968Z,73.20
2017-10-14T18:32:20.395Z,73.04
2017-10-14T18:34:47.824Z,72.90
2017-10-14T18:37:15.257Z,73.14
2017-10-14T18:39:42.688Z,73.35
2017-10-14T18:42:10.091Z,73.66
2017-10-14T18:44:37.536Z,73.85
2017-10-14T18:47:04.961Z,74.10
2017-10-14T18:49:32.396Z,74.36
2017-10-14T18:51:59.870Z,74.27
2017-10-14T18:54:27.392Z,74.25
2017-10-14T18:56:58.527Z,74.12
2017-10-14T18:59:25.999Z,74.12
2017-10-14T19:01:53.392Z,73.93
2017-10-14T19:04:20.838Z,74.25
2017-10-14T19:06:48.243Z,74.38
2017-10-14T19:09:15.777Z,74.50
2017-10-14T19:11:43.202Z,74.79
2017-10-14T19:14:10.595Z,74.94
2017-10-14T19:16:38.032Z,75.32
2017-10-14T19:19:05.439Z,75.43
2017-10-14T19:21:32.892Z,75.43
2017-10-14T19:24:00.291Z,75.15
2017-10-14T19:26:27.766Z,75.22
2017-10-14T19:28:55.208Z,75.32
2017-10-14T19:31:22.652Z,75.54
2017-10-14T19:33:50.053Z,75.54
2017-10-14T19:36:17.447Z,75.83
2017-10-14T19:38:45.769Z,75.84
2017-10-14T19:41:13.208Z,76.10
2017-10-14T19:43:40.776Z,76.24
2017-10-14T19:46:08.183Z,76.42
2017-10-14T19:48:35.615Z,76.37
2017-10-14T19:51:03.017Z,76.22
2017-10-14T19:53:30.467Z,76.22
2017-10-14T19:55:57.880Z,76.08
2017-10-14T19:58:25.716Z,75.86
2017-10-14T20:00:53.118Z,75.57
2017-10-14T20:03:20.551Z,75.85
2017-10-14T20:05:48.066Z,76.37
2017-10-14T20:08:15.463Z,76.35
2017-10-14T20:10:42.897Z,76.47
2017-10-14T20:13:10.296Z,76.44
2017-10-14T20:15:37.761Z,76.51
2017-10-14T20:18:05.188Z,76.31
2017-10-14T20:20:32.613Z,76.77
2017-10-14T20:23:00.029Z,77.18
2017-10-14T20:25:27.450Z,77.20
2017-10-14T20:27:54.951Z,77.07
2017-10-14T20:30:22.347Z,76.90
2017-10-14T20:32:49.779Z,76.79
2017-10-14T20:35:17.183Z,76.81
2017-10-14T20:37:44.615Z,77.15
2017-10-14T20:40:12.024Z,77.27
2017-10-14T20:42:39.804Z,77.38
2017-10-14T20:45:07.192Z,77.41
2017-10-14T20:47:34.677Z,77.23
2017-10-14T20:50:02.095Z,77.04
2017-10-14T20:52:29.552Z,77.00
2017-10-14T20:54:56.985Z,76.79
2017-10-14T20:57:24.403Z,76.87
2017-10-14T20:59:51.824Z,76.99
2017-10-14T21:02:25.691Z,77.08
2017-10-14T21:04:54.926Z,77.19
2017-10-14T21:07:24.964Z,77.19
2017-10-14T21:09:52.431Z,77.15
2017-10-14T21:12:19.840Z,77.28
2017-10-14T21:14:47.244Z,77.13
2017-10-14T21:17:14.804Z,77.02
2017-10-14T21:19:42.213Z,76.96
2017-10-14T21:22:09.647Z,76.82
2017-10-14T21:24:37.043Z,77.14
2017-10-14T21:27:15.692Z,76.98
2017-10-14T21:29:43.201Z,76.92
2017-10-14T21:32:10.635Z,76.84
2017-10-14T21:34:39.321Z,77.22
2017-10-14T21:37:06.817Z,77.23
2017-10-14T21:39:34.224Z,77.03
2017-10-14T21:42:01.650Z,76.79
2017-10-14T21:44:29.131Z,77.07
2017-10-14T21:46:56.548Z,77.01
2017-10-14T21:49:23.964Z,77.06
2017-10-14T21:51:51.371Z,76.98
2017-10-14T21:54:18.792Z,76.94
2017-10-14T21:56:46.746Z,76.83
2017-10-14T21:59:14.192Z,76.58
2017-10-14T22:01:42.487Z,76.54
2017-10-14T22:04:10.035Z,76.82
2017-10-14T22:06:37.429Z,76.99
2017-10-14T22:09:04.892Z,76.96
2017-10-14T22:11:32.564Z,76.62
2017-10-14T22:14:00.391Z,76.70
2017-10-14T22:16:27.879Z,76.87
2017-10-14T22:18:55.314Z,77.05
2017-10-14T22:21:22.747Z,77.05
2017-10-14T22:23:51.096Z,76.71
2017-10-14T22:26:18.543Z,76.59
2017-10-14T22:28:46.089Z,77.23
2017-10-14T22:31:13.629Z,77.19
2017-10-14T22:33:41.032Z,77.07
2017-10-14T22:36:08.475Z,77.01
2017-10-14T22:38:35.904Z,77.26
2017-10-14T22:41:03.306Z,77.43
2017-10-14T22:43:30.734Z,77.66
2017-10-14T22:45:58.636Z,77.79
2017-10-14T22:48:26.072Z,77.53
2017-10-14T22:50:54.561Z,77.40
2017-10-14T22:53:22.028Z,77.57
2017-10-14T22:55:49.472Z,77.53
2017-10-14T22:58:16.876Z,77.80
2017-10-14T23:00:44.298Z,77.88
2017-10-14T23:03:11.699Z,77.57
2017-10-14T23:05:39.131Z,77.30
2017-10-14T23:08:07.336Z,77.22
2017-10-14T23:10:34.773Z,77.34
2017-10-14T23:13:02.972Z,77.21
2017-10-14T23:15:30.404Z,77.39
2017-10-14T23:17:57.823Z,77.49
2017-10-14T23:20:25.233Z,77.03
2017-10-14T23:22:52.652Z,76.76
2017-10-14T23:25:20.105Z,76.65
2017-10-14T23:27:47.528Z,76.37
2017-10-14T23:30:15.268Z,76.18
2017-10-14T23:32:42.705Z,76.07
2017-10-14T23:35:10.125Z,76.24
2017-10-14T23:37:37.640Z,76.63
2017-10-14T23:40:05.269Z,76.61
2017-10-14T23:42:32.734Z,76.59
2017-10-14T23:45:00.124Z,76.37
2017-10-14T23:47:27.547Z,76.19
2017-10-14T23:49:54.964Z,76.51
2017-10-14T23:52:22.440Z,76.63
2017-10-14T23:54:50.216Z,76.86
2017-10-14T23:57:17.683Z,76.80
2017-10-14T23:59:45.128Z,76.50
